Time;durP1;ratioP1;P1;durP2;ratioP2;P2;SDS_P1;SDS_P2;PMS_P1;PMS_P2;Temp;Humidity;BMP_temperature;BMP_pressure;BME280_temperature;BME280_humidity;BME280_pressure;Samples;Min_cycle;Max_cycle;Signal;HPM_P1;HPM_P2
2022/10/27 00:00:40;;;;;;;9.43;8.82;;;;;;;;;;4996507;28;20041;-61
2022/10/27 00:03:08;;;;;;;9.15;8.55;;;;;;;;;;4997120;28;20026;-60
2022/10/27 00:05:33;;;;;;;22.10;9.30;;;;;;;;;;4997254;28;20035;-61
2022/10/27 00:07:59;;;;;;;9.32;8.73;;;;;;;;;;4998434;28;20038;-62
2022/10/27 00:10:24;;;;;;;9.93;9.23;;;;;;;;;;4996390;28;20027;-61
2022/10/27 00:12:49;;;;;;;9.75;9.15;;;;;;;;;;4996394;28;20030;-61
2022/10/27 00:15:15;;;;;;;9.32;8.73;;;;;;;;;;4997698;28;20038;-61
2022/10/27 00:17:40;;;;;;;9.68;8.98;;;;;;;;;;4996976;28;20026;-62
2022/10/27 00:20:07;;;;;;;9.82;9.23;;;;;;;;;;4996151;28;20093;-61
2022/10/27 00:22:33;;;;;;;9.85;9.25;;;;;;;;;;4997944;28;20034;-61
2022/10/27 00:24:58;;;;;;;10.55;9.73;;;;;;;;;;5000142;28;20046;-61
2022/10/27 00:27:23;;;;;;;11.80;11.10;;;;;;;;;;4998268;28;20034;-60
2022/10/27 00:29:49;;;;;;;10.23;9.63;;;;;;;;;;4997161;28;20034;-60
2022/10/27 00:32:14;;;;;;;10.13;9.50;;;;;;;;;;4997964;28;20289;-60
2022/10/27 00:34:40;;;;;;;10.40;9.70;;;;;;;;;;5000595;28;20542;-60
2022/10/27 00:37:05;;;;;;;10.30;9.70;;;;;;;;;;4993836;28;20066;-60
2022/10/27 00:39:30;;;;;;;10.10;9.50;;;;;;;;;;4993912;28;20033;-60
2022/10/27 00:41:56;;;;;;;11.48;10.77;;;;;;;;;;5000083;28;20098;-60
2022/10/27 00:44:40;;;;;;;11.30;10.60;;;;;;;;;;4998024;28;20536;-60
2022/10/27 00:47:08;;;;;;;10.85;10.15;;;;;;;;;;4996132;28;20120;-60
2022/10/27 00:49:42;;;;;;;10.93;10.23;;;;;;;;;;4997334;28;20125;-60
2022/10/27 00:52:14;;;;;;;10.48;9.82;;;;;;;;;;4996791;28;20034;-61
2022/10/27 00:54:41;;;;;;;10.63;9.93;;;;;;;;;;4999642;28;20042;-60
2022/10/27 00:57:08;;;;;;;10.80;10.05;;;;;;;;;;5001252;28;20049;-60
2022/10/27 00:59:36;;;;;;;16.92;9.82;;;;;;;;;;4995136;28;20416;-60
2022/10/27 01:02:01;;;;;;;10.95;10.25;;;;;;;;;;4996129;28;20030;-60
2022/10/27 01:04:36;;;;;;;15.45;10.20;;;;;;;;;;4997919;28;20038;-61
2022/10/27 01:07:01;;;;;;;11.23;10.52;;;;;;;;;;4999286;28;20349;-60
2022/10/27 01:09:27;;;;;;;9.77;9.18;;;;;;;;;;4998222;28;20097;-60
2022/10/27 01:11:53;;;;;;;10.82;10.15;;;;;;;;;;4997704;28;20038;-60
2022/10/27 01:14:18;;;;;;;10.07;9.48;;;;;;;;;;4998901;28;20029;-60
2022/10/27 01:17:10;;;;;;;10.15;9.55;;;;;;;;;;4996380;28;20579;-60
2022/10/27 01:20:12;;;;;;;11.18;10.48;;;;;;;;;;4967044;28;20042;-60
2022/10/27 01:23:08;;;;;;;10.95;10.25;;;;;;;;;;4996236;28;20048;-60
2022/10/27 01:25:49;;;;;;;10.75;9.95;;;;;;;;;;4983472;28;20544;-60
2022/10/27 01:28:33;;;;;;;10.98;10.23;;;;;;;;;;4996755;28;20038;-60
2022/10/27 01:31:17;;;;;;;10.55;9.95;;;;;;;;;;4995932;28;20444;-60
2022/10/27 01:33:47;;;;;;;11.07;10.38;;;;;;;;;;4994770;28;20095;-60
2022/10/27 01:36:44;;;;;;;9.85;9.25;;;;;;;;;;5000044;28;20375;-60
2022/10/27 01:39:20;;;;;;;9.90;9.30;;;;;;;;;;4983809;28;20073;-60
2022/10/27 01:42:00;;;;;;;11.15;10.43;;;;;;;;;;4994789;28;20448;-59
2022/10/27 01:44:32;;;;;;;11.52;10.73;;;;;;;;;;4995044;28;20034;-59
2022/10/27 01:46:58;;;;;;;9.90;9.30;;;;;;;;;;4995163;28;20528;-59
2022/10/27 01:49:23;;;;;;;9.82;9.23;;;;;;;;;;4997539;28;20138;-59
2022/10/27 01:51:49;;;;;;;9.20;8.60;;;;;;;;;;4994724;28;20179;-59
2022/10/27 01:54:17;;;;;;;10.13;9.52;;;;;;;;;;4994228;28;20030;-59
2022/10/27 01:56:57;;;;;;;11.68;10.02;;;;;;;;;;4996547;28;20040;-59
2022/10/27 01:59:23;;;;;;;9.80;9.10;;;;;;;;;;5003447;28;20040;-60
2022/10/27 02:02:01;;;;;;;9.98;9.38;;;;;;;;;;4992511;28;20017;-59
2022/10/27 02:04:47;;;;;;;9.38;8.77;;;;;;;;;;4995242;28;20030;-59
2022/10/27 02:07:24;;;;;;;8.85;8.25;;;;;;;;;;4995943;28;20053;-59
2022/10/27 02:09:58;;;;;;;9.68;9.07;;;;;;;;;;4997973;28;20034;-59
2022/10/27 02:12:29;;;;;;;10.43;9.60;;;;;;;;;;5000699;28;20052;-60
2022/10/27 02:14:58;;;;;;;9.45;8.85;;;;;;;;;;4996745;28;20072;-60
2022/10/27 02:17:28;;;;;;;9.88;9.27;;;;;;;;;;4996311;28;20499;-60
2022/10/27 02:19:54;;;;;;;10.13;9.52;;;;;;;;;;4995475;28;20352;-60
2022/10/27 02:22:24;;;;;;;9.27;8.68;;;;;;;;;;4994354;28;20026;-60
2022/10/27 02:24:50;;;;;;;11.30;10.60;;;;;;;;;;5000609;28;20030;-61
2022/10/27 02:27:32;;;;;;;9.75;9.15;;;;;;;;;;4999105;28;20040;-60
2022/10/27 02:29:59;;;;;;;10.60;9.80;;;;;;;;;;4998482;28;20076;-60
2022/10/27 02:32:27;;;;;;;9.30;8.70;;;;;;;;;;5000054;28;20038;-60
2022/10/27 02:34:53;;;;;;;9.93;9.32;;;;;;;;;;4997543;28;20188;-60
2022/10/27 02:37:24;;;;;;;9.30;8.70;;;;;;;;;;5000172;28;20165;-60
2022/10/27 02:39:50;;;;;;;10.85;10.15;;;;;;;;;;5001270;28;20036;-60
2022/10/27 02:42:15;;;;;;;9.60;9.00;;;;;;;;;;5001535;28;20026;-61
2022/10/27 02:44:40;;;;;;;9.95;9.35;;;;;;;;;;4999109;28;20368;-61
2022/10/27 02:47:06;;;;;;;10.75;10.05;;;;;;;;;;4997749;28;20076;-61
2022/10/27 02:49:31;;;;;;;10.68;9.98;;;;;;;;;;4997445;28;20072;-61
2022/10/27 02:51:56;;;;;;;11.77;11.05;;;;;;;;;;4999207;28;20042;-61
2022/10/27 02:54:22;;;;;;;10.93;10.23;;;;;;;;;;4998711;28;20034;-61
2022/10/27 02:56:47;;;;;;;11.00;10.30;;;;;;;;;;4999880;28;20467;-61
2022/10/27 02:59:12;;;;;;;12.75;11.95;;;;;;;;;;4997990;28;20241;-60
2022/10/27 03:01:39;;;;;;;11.85;11.05;;;;;;;;;;4997011;28;20069;-61
2022/10/27 03:04:04;;;;;;;13.07;12.23;;;;;;;;;;4997684;28;20109;-60
2022/10/27 03:06:29;;;;;;;12.98;11.85;;;;;;;;;;5000777;28;20029;-60
2022/10/27 03:08:55;;;;;;;12.07;11.38;;;;;;;;;;4999148;28;20041;-60
2022/10/27 03:11:20;;;;;;;12.55;11.77;;;;;;;;;;4998873;28;20034;-60
2022/10/27 03:13:45;;;;;;;11.65;10.95;;;;;;;;;;5000884;28;20238;-60
2022/10/27 03:16:11;;;;;;;12.40;11.60;;;;;;;;;;4998361;28;20035;-60
2022/10/27 03:18:36;;;;;;;10.82;10.13;;;;;;;;;;4998331;28;20026;-60
2022/10/27 03:21:02;;;;;;;11.38;10.63;;;;;;;;;;4999623;28;20030;-60
2022/10/27 03:23:27;;;;;;;11.40;10.70;;;;;;;;;;4996923;28;20049;-60
2022/10/27 03:25:52;;;;;;;11.18;10.45;;;;;;;;;;4998052;28;20102;-60
2022/10/27 03:28:18;;;;;;;11.00;10.30;;;;;;;;;;4994115;28;20065;-60
2022/10/27 03:30:43;;;;;;;12.27;11.43;;;;;;;;;;4996992;28;20026;-60
2022/10/27 03:33:09;;;;;;;10.07;9.48;;;;;;;;;;4996664;28;20376;-60
2022/10/27 03:35:34;;;;;;;11.20;10.32;;;;;;;;;;4995269;28;20041;-61
2022/10/27 03:38:00;;;;;;;11.15;10.45;;;;;;;;;;4998422;28;20030;-61
2022/10/27 03:40:27;;;;;;;12.77;11.77;;;;;;;;;;4999390;28;20042;-61
2022/10/27 03:42:57;;;;;;;13.32;12.52;;;;;;;;;;4998223;28;20077;-61
2022/10/27 03:45:26;;;;;;;12.20;11.50;;;;;;;;;;4997167;28;20096;-61
2022/10/27 03:48:03;;;;;;;12.82;12.05;;;;;;;;;;5000701;28;20037;-61
2022/10/27 03:50:29;;;;;;;13.68;12.88;;;;;;;;;;4999939;28;20038;-60
2022/10/27 03:52:54;;;;;;;12.93;12.13;;;;;;;;;;5001448;28;20025;-60
2022/10/27 03:55:20;;;;;;;12.70;11.90;;;;;;;;;;5000167;28;20048;-60
2022/10/27 03:57:45;;;;;;;13.00;12.20;;;;;;;;;;4997558;28;20021;-60
2022/10/27 04:00:11;;;;;;;13.00;12.07;;;;;;;;;;4998645;28;20026;-60
2022/10/27 04:02:36;;;;;;;13.95;13.00;;;;;;;;;;4997934;28;20058;-60
2022/10/27 04:05:02;;;;;;;13.23;12.43;;;;;;;;;;4998241;28;20471;-60
2022/10/27 04:07:27;;;;;;;22.92;12.57;;;;;;;;;;4999502;28;20034;-60
2022/10/27 04:09:52;;;;;;;12.10;11.35;;;;;;;;;;4999139;28;20500;-60
2022/10/27 04:12:18;;;;;;;14.20;13.30;;;;;;;;;;5000420;28;20463;-60
2022/10/27 04:14:43;;;;;;;14.18;13.35;;;;;;;;;;4998715;28;20058;-60
2022/10/27 04:17:08;;;;;;;13.95;12.77;;;;;;;;;;4996003;28;20026;-61
2022/10/27 04:19:34;;;;;;;13.45;12.55;;;;;;;;;;4999145;28;20468;-61
2022/10/27 04:21:59;;;;;;;13.32;12.43;;;;;;;;;;4997052;28;20336;-61
2022/10/27 04:24:24;;;;;;;13.02;12.20;;;;;;;;;;4993326;28;20091;-60
2022/10/27 04:26:50;;;;;;;13.23;12.23;;;;;;;;;;4993791;28;20030;-60
2022/10/27 04:29:15;;;;;;;11.80;11.10;;;;;;;;;;4996360;28;20109;-59
2022/10/27 04:31:40;;;;;;;13.82;13.02;;;;;;;;;;5000175;28;20034;-60
2022/10/27 04:34:06;;;;;;;12.85;12.05;;;;;;;;;;4995639;28;20052;-60
2022/10/27 04:36:31;;;;;;;12.00;11.30;;;;;;;;;;5000999;28;20091;-60
2022/10/27 04:38:57;;;;;;;12.63;11.82;;;;;;;;;;4997223;28;20117;-60
2022/10/27 04:41:22;;;;;;;11.77;11.07;;;;;;;;;;4998024;28;20096;-60
2022/10/27 04:43:49;;;;;;;13.40;12.60;;;;;;;;;;4996038;28;20042;-61
2022/10/27 04:46:15;;;;;;;13.02;12.15;;;;;;;;;;4995490;28;20107;-60
2022/10/27 04:48:40;;;;;;;11.63;10.93;;;;;;;;;;4980573;28;20463;-59
2022/10/27 04:51:05;;;;;;;13.45;12.65;;;;;;;;;;4998387;28;20074;-59
2022/10/27 04:53:31;;;;;;;13.65;12.85;;;;;;;;;;4996015;28;20038;-60
2022/10/27 04:55:56;;;;;;;12.95;12.02;;;;;;;;;;4998928;28;20060;-60
2022/10/27 04:58:21;;;;;;;11.32;10.63;;;;;;;;;;4997354;28;20735;-61
2022/10/27 05:00:47;;;;;;;11.52;10.80;;;;;;;;;;5000058;28;20030;-61
2022/10/27 05:03:13;;;;;;;12.18;11.48;;;;;;;;;;4999606;28;20112;-60
2022/10/27 05:05:38;;;;;;;11.55;10.85;;;;;;;;;;4999933;28;20065;-61
2022/10/27 05:08:04;;;;;;;12.70;11.77;;;;;;;;;;4999121;28;20046;-59
2022/10/27 05:10:31;;;;;;;11.45;10.75;;;;;;;;;;4996996;28;20046;-60
2022/10/27 05:12:58;;;;;;;10.43;9.70;;;;;;;;;;4998021;28;20046;-59
2022/10/27 05:15:23;;;;;;;11.38;10.68;;;;;;;;;;4997005;28;20507;-59
2022/10/27 05:17:49;;;;;;;11.35;10.65;;;;;;;;;;4996376;28;20058;-61
2022/10/27 05:20:15;;;;;;;11.63;10.73;;;;;;;;;;4996066;28;20040;-61
2022/10/27 05:22:40;;;;;;;11.70;10.95;;;;;;;;;;4998366;28;20459;-61
2022/10/27 05:25:06;;;;;;;11.40;10.70;;;;;;;;;;4995136;28;20037;-60
2022/10/27 05:27:32;;;;;;;11.82;11.13;;;;;;;;;;4994812;28;20560;-61
2022/10/27 05:29:57;;;;;;;11.80;11.10;;;;;;;;;;4998547;28;20034;-60
2022/10/27 05:32:23;;;;;;;12.25;11.55;;;;;;;;;;4994948;28;20057;-60
2022/10/27 05:34:48;;;;;;;11.88;10.98;;;;;;;;;;4997168;28;20387;-61
2022/10/27 05:37:14;;;;;;;13.20;12.32;;;;;;;;;;4998085;28;20712;-60
2022/10/27 05:39:39;;;;;;;13.23;12.35;;;;;;;;;;4998008;28;20491;-61
2022/10/27 05:42:05;;;;;;;12.70;11.93;;;;;;;;;;5000584;28;20037;-59
2022/10/27 05:44:30;;;;;;;11.88;11.15;;;;;;;;;;4994904;28;20372;-60
2022/10/27 05:46:56;;;;;;;14.57;13.70;;;;;;;;;;4998858;28;20030;-60
2022/10/27 05:49:21;;;;;;;14.75;13.75;;;;;;;;;;5000087;28;20412;-60
2022/10/27 05:51:50;;;;;;;14.90;13.57;;;;;;;;;;4998990;28;20026;-61
2022/10/27 05:54:16;;;;;;;14.10;13.20;;;;;;;;;;4993413;28;20045;-61
2022/10/27 05:56:41;;;;;;;15.23;14.10;;;;;;;;;;4998635;28;20037;-60
2022/10/27 05:59:08;;;;;;;14.25;13.27;;;;;;;;;;4998888;28;20601;-61
2022/10/27 06:01:34;;;;;;;14.45;13.55;;;;;;;;;;4996202;28;20034;-60
2022/10/27 06:03:59;;;;;;;14.63;13.82;;;;;;;;;;4995554;28;20507;-60
2022/10/27 06:06:24;;;;;;;15.00;14.00;;;;;;;;;;4998648;28;20046;-60
2022/10/27 06:08:50;;;;;;;14.20;13.38;;;;;;;;;;4993304;28;20392;-60
2022/10/27 06:11:15;;;;;;;14.68;13.77;;;;;;;;;;4995472;28;20045;-61
2022/10/27 06:13:40;;;;;;;15.10;14.07;;;;;;;;;;5001137;28;20026;-61
2022/10/27 06:16:06;;;;;;;15.05;14.05;;;;;;;;;;4997585;28;20057;-60
2022/10/27 06:18:31;;;;;;;15.75;14.75;;;;;;;;;;4997110;28;20030;-60
2022/10/27 06:20:57;;;;;;;13.57;12.63;;;;;;;;;;4995643;28;20426;-60
2022/10/27 06:23:22;;;;;;;13.05;12.18;;;;;;;;;;4997092;28;20034;-60
2022/10/27 06:25:47;;;;;;;12.02;11.23;;;;;;;;;;4999020;28;20495;-60
2022/10/27 06:28:13;;;;;;;11.00;10.20;;;;;;;;;;4996954;28;20061;-61
2022/10/27 06:30:39;;;;;;;11.38;10.60;;;;;;;;;;4998632;28;20041;-60
2022/10/27 06:33:04;;;;;;;11.57;10.88;;;;;;;;;;4996520;28;20389;-60
2022/10/27 06:35:29;;;;;;;13.10;12.07;;;;;;;;;;4994001;28;20070;-59
2022/10/27 06:37:55;;;;;;;11.93;11.23;;;;;;;;;;4991941;28;20030;-60
2022/10/27 06:40:20;;;;;;;12.50;11.75;;;;;;;;;;4996448;28;20026;-60
2022/10/27 06:42:48;;;;;;;12.52;11.73;;;;;;;;;;4998717;28;20030;-59
2022/10/27 06:45:17;;;;;;;12.88;12.00;;;;;;;;;;4996961;28;20045;-60
2022/10/27 06:47:43;;;;;;;11.70;11.00;;;;;;;;;;4998834;28;20097;-60
2022/10/27 06:50:09;;;;;;;12.25;11.55;;;;;;;;;;4996154;28;20109;-60
2022/10/27 06:52:36;;;;;;;12.70;11.90;;;;;;;;;;4995149;28;20438;-60
2022/10/27 06:55:01;;;;;;;12.35;11.60;;;;;;;;;;4998430;28;20053;-60
2022/10/27 06:57:26;;;;;;;10.93;10.23;;;;;;;;;;4996337;28;20049;-60
2022/10/27 06:59:52;;;;;;;11.20;10.38;;;;;;;;;;4994627;28;20027;-60
2022/10/27 07:02:17;;;;;;;13.07;12.02;;;;;;;;;;4994295;28;20034;-60
2022/10/27 07:04:42;;;;;;;12.43;11.63;;;;;;;;;;5003220;28;20034;-60
2022/10/27 07:07:08;;;;;;;12.50;11.63;;;;;;;;;;4994080;28;20062;-58
2022/10/27 07:09:33;;;;;;;13.43;12.55;;;;;;;;;;4995520;28;20117;-60
2022/10/27 07:11:58;;;;;;;12.82;12.02;;;;;;;;;;4998662;28;20041;-61
2022/10/27 07:14:24;;;;;;;14.98;14.07;;;;;;;;;;4997205;28;20053;-60
2022/10/27 07:16:49;;;;;;;15.68;14.68;;;;;;;;;;5000079;28;20109;-60
2022/10/27 07:19:15;;;;;;;14.88;13.98;;;;;;;;;;5001395;28;20066;-61
2022/10/27 07:21:40;;;;;;;14.77;13.98;;;;;;;;;;5000846;28;20472;-61
2022/10/27 07:24:06;;;;;;;14.10;13.30;;;;;;;;;;4999921;28;20022;-62
2022/10/27 07:26:31;;;;;;;14.85;13.80;;;;;;;;;;5001195;28;20038;-63
2022/10/27 07:28:57;;;;;;;14.32;13.15;;;;;;;;;;5000983;28;20100;-61
2022/10/27 07:31:22;;;;;;;14.15;13.25;;;;;;;;;;4997517;28;20041;-61
2022/10/27 07:33:47;;;;;;;14.38;13.48;;;;;;;;;;4998567;28;20026;-61
2022/10/27 07:36:13;;;;;;;13.68;12.88;;;;;;;;;;5000700;28;20037;-61
2022/10/27 07:38:38;;;;;;;11.98;11.27;;;;;;;;;;4998752;28;20073;-62
2022/10/27 07:41:04;;;;;;;13.52;12.73;;;;;;;;;;4996904;28;20069;-61
2022/10/27 07:43:30;;;;;;;12.57;11.77;;;;;;;;;;4998505;28;20041;-61
2022/10/27 07:45:55;;;;;;;12.40;11.60;;;;;;;;;;4998945;28;20018;-62
2022/10/27 07:48:20;;;;;;;12.95;12.15;;;;;;;;;;4997558;28;20034;-61
2022/10/27 07:50:46;;;;;;;13.10;12.30;;;;;;;;;;4996368;28;20037;-61
2022/10/27 07:53:14;;;;;;;10.68;10.07;;;;;;;;;;4993742;28;20041;-61
2022/10/27 07:55:39;;;;;;;11.68;10.98;;;;;;;;;;4996953;28;20044;-61
2022/10/27 07:58:15;;;;;;;12.40;11.60;;;;;;;;;;4995089;28;20030;-61
2022/10/27 08:00:43;;;;;;;11.55;10.85;;;;;;;;;;4997222;28;20092;-61
2022/10/27 08:03:28;;;;;;;12.82;12.10;;;;;;;;;;4996364;28;20334;-61
2022/10/27 08:05:54;;;;;;;11.68;10.98;;;;;;;;;;5004060;28;20497;-61
2022/10/27 08:08:20;;;;;;;12.18;11.38;;;;;;;;;;4995118;28;20038;-61
2022/10/27 08:10:48;;;;;;;12.38;11.48;;;;;;;;;;4998533;28;20616;-62
2022/10/27 08:13:13;;;;;;;12.90;12.10;;;;;;;;;;5000027;28;20131;-61
2022/10/27 08:15:40;;;;;;;12.18;11.48;;;;;;;;;;4999136;28;20030;-62
2022/10/27 08:18:06;;;;;;;13.50;12.60;;;;;;;;;;4998313;28;20373;-61
2022/10/27 08:20:35;;;;;;;12.25;11.45;;;;;;;;;;4997037;28;20415;-61
2022/10/27 08:23:03;;;;;;;11.20;10.50;;;;;;;;;;4997127;28;20042;-60
2022/10/27 08:25:30;;;;;;;10.10;9.40;;;;;;;;;;4998496;28;20138;-62
2022/10/27 08:27:56;;;;;;;11.20;10.40;;;;;;;;;;5000466;28;20053;-62
2022/10/27 08:30:22;;;;;;;10.15;9.45;;;;;;;;;;4999038;28;20581;-60
2022/10/27 08:32:48;;;;;;;10.77;10.02;;;;;;;;;;5000946;28;20041;-61
2022/10/27 08:35:15;;;;;;;10.05;9.35;;;;;;;;;;5002129;28;20455;-61
2022/10/27 08:37:41;;;;;;;10.57;9.93;;;;;;;;;;4999009;28;20034;-61
2022/10/27 08:40:07;;;;;;;10.02;9.40;;;;;;;;;;4997860;28;20369;-60
2022/10/27 08:42:39;;;;;;;9.07;8.48;;;;;;;;;;4997722;28;20735;-60
2022/10/27 08:45:16;;;;;;;8.50;7.90;;;;;;;;;;4999689;28;20692;-60
2022/10/27 08:47:42;;;;;;;9.25;8.65;;;;;;;;;;4998713;28;20034;-60
2022/10/27 08:50:17;;;;;;;8.65;8.05;;;;;;;;;;4995197;28;20038;-60
2022/10/27 08:52:52;;;;;;;8.05;7.55;;;;;;;;;;4999728;28;20048;-60
2022/10/27 08:55:22;;;;;;;7.70;7.20;;;;;;;;;;4997342;28;20037;-60
2022/10/27 08:58:04;;;;;;;8.15;7.63;;;;;;;;;;4995769;28;20029;-60
2022/10/27 09:00:33;;;;;;;8.73;8.10;;;;;;;;;;4995244;28;20033;-60
2022/10/27 09:03:05;;;;;;;8.90;8.30;;;;;;;;;;4996076;28;20037;-60
2022/10/27 09:05:51;;;;;;;8.20;7.70;;;;;;;;;;4998314;28;20023;-60
2022/10/27 09:08:41;;;;;;;9.27;8.68;;;;;;;;;;4998354;28;20125;-60
2022/10/27 09:11:44;;;;;;;8.73;8.13;;;;;;;;;;4995262;28;20119;-60
2022/10/27 09:14:25;;;;;;;8.65;8.05;;;;;;;;;;4994051;28;20687;-60
2022/10/27 09:16:56;;;;;;;9.05;8.45;;;;;;;;;;4997098;28;20042;-60
2022/10/27 09:19:28;;;;;;;8.52;7.93;;;;;;;;;;4998796;28;20045;-60
2022/10/27 09:21:53;;;;;;;8.65;8.05;;;;;;;;;;4997493;28;20042;-60
2022/10/27 09:24:23;;;;;;;8.40;7.85;;;;;;;;;;4995451;28;20378;-60
2022/10/27 09:26:49;;;;;;;8.00;7.50;;;;;;;;;;4997141;28;20057;-60
2022/10/27 09:29:20;;;;;;;7.72;7.22;;;;;;;;;;4983518;28;20775;-60
2022/10/27 09:31:56;;;;;;;;;;;;;;;;;;4996916;28;20117;-60
2022/10/27 09:35:01;;;;;;;8.27;7.78;;;;;;;;;;4993732;28;20019;-60
2022/10/27 09:37:29;;;;;;;8.82;8.23;;;;;;;;;;4990686;28;20045;-60
2022/10/27 09:39:56;;;;;;;10.45;8.48;;;;;;;;;;4995921;28;20072;-60
2022/10/27 09:42:23;;;;;;;9.43;8.82;;;;;;;;;;4996485;28;20376;-60
2022/10/27 09:44:58;;;;;;;12.75;12.02;;;;;;;;;;4996826;28;20073;-60
2022/10/27 09:47:26;;;;;;;10.02;9.23;;;;;;;;;;4995931;28;20032;-60
2022/10/27 09:49:52;;;;;;;14.77;13.93;;;;;;;;;;4993557;28;20030;-62
2022/10/27 09:52:29;;;;;;;13.70;12.88;;;;;;;;;;4996365;28;20057;-62
2022/10/27 09:54:56;;;;;;;14.40;13.50;;;;;;;;;;4995095;28;20113;-62
2022/10/27 09:57:26;;;;;;;15.23;14.30;;;;;;;;;;4995700;28;20038;-62
2022/10/27 10:00:02;;;;;;;20.67;19.35;;;;;;;;;;4996236;28;20101;-61
2022/10/27 10:02:33;;;;;;;21.60;20.40;;;;;;;;;;4998831;28;20396;-62
2022/10/27 10:04:58;;;;;;;;;;;;;;;;;;4994991;28;20034;-62
2022/10/27 10:07:35;;;;;;;17.90;16.63;;;;;;;;;;4994858;28;19928;-62
2022/10/27 10:10:04;;;;;;;20.17;19.08;;;;;;;;;;4993326;28;20042;-62
2022/10/27 10:12:29;;;;;;;27.10;25.65;;;;;;;;;;4995843;28;20046;-62
2022/10/27 10:15:10;;;;;;;26.23;24.83;;;;;;;;;;4998181;28;20034;-62
2022/10/27 10:17:37;;;;;;;22.73;21.52;;;;;;;;;;4999279;28;20062;-62
2022/10/27 10:20:03;;;;;;;29.50;27.95;;;;;;;;;;4997178;28;20460;-62
2022/10/27 10:22:31;;;;;;;31.70;30.02;;;;;;;;;;4999271;28;20874;-62
2022/10/27 10:25:17;;;;;;;35.20;33.30;;;;;;;;;;4995417;28;20496;-62
2022/10/27 10:27:47;;;;;;;37.13;35.20;;;;;;;;;;4995129;28;20034;-62
2022/10/27 10:30:18;;;;;;;37.92;35.92;;;;;;;;;;4997024;28;20022;-62
2022/10/27 10:32:50;;;;;;;38.78;36.75;;;;;;;;;;4998051;28;20097;-61
2022/10/27 10:35:41;;;;;;;43.30;41.05;;;;;;;;;;4998200;28;20026;-62
2022/10/27 10:38:29;;;;;;;39.83;37.83;;;;;;;;;;4999067;28;20037;-63
2022/10/27 10:41:21;;;;;;;42.55;40.35;;;;;;;;;;4996729;28;20046;-61
2022/10/27 10:44:08;;;;;;;39.38;36.97;;;;;;;;;;4989488;28;20038;-59
2022/10/27 10:46:36;;;;;;;36.55;34.63;;;;;;;;;;4995510;28;20034;-62
2022/10/27 10:49:02;;;;;;;40.50;38.38;;;;;;;;;;5000232;28;20041;-62
2022/10/27 10:51:33;;;;;;;43.33;40.85;;;;;;;;;;5001517;28;20033;-62
2022/10/27 10:54:06;;;;;;;44.28;41.78;;;;;;;;;;5001505;28;20125;-61
2022/10/27 10:56:37;;;;;;;43.72;41.47;;;;;;;;;;5002901;28;20022;-61
2022/10/27 10:59:11;;;;;;;40.72;38.53;;;;;;;;;;5002231;28;20042;-62
2022/10/27 11:01:41;;;;;;;33.10;31.40;;;;;;;;;;5001433;28;20042;-61
2022/10/27 11:04:11;;;;;;;39.45;37.28;;;;;;;;;;5000437;28;20049;-60
2022/10/27 11:06:36;;;;;;;35.15;33.25;;;;;;;;;;5001271;28;20037;-60
2022/10/27 11:09:03;;;;;;;35.22;33.35;;;;;;;;;;4999934;28;20037;-60
2022/10/27 11:11:44;;;;;;;33.05;31.25;;;;;;;;;;4999330;28;20033;-60
2022/10/27 11:14:13;;;;;;;39.92;37.88;;;;;;;;;;5002551;28;20129;-61
2022/10/27 11:16:45;;;;;;;35.47;33.47;;;;;;;;;;4999628;28;20041;-60
2022/10/27 11:19:16;;;;;;;40.38;38.22;;;;;;;;;;4999603;28;20048;-61
2022/10/27 11:22:00;;;;;;;36.20;34.30;;;;;;;;;;5001208;28;20017;-61
2022/10/27 11:24:30;;;;;;;32.72;30.92;;;;;;;;;;5000722;28;20041;-62
2022/10/27 11:27:05;;;;;;;33.40;31.58;;;;;;;;;;4995204;28;20117;-61
2022/10/27 11:30:08;;;;;;;27.73;26.13;;;;;;;;;;4997721;28;20034;-61
2022/10/27 11:32:55;;;;;;;29.35;27.73;;;;;;;;;;4999536;28;20041;-61
2022/10/27 11:35:36;;;;;;;38.78;36.78;;;;;;;;;;4990258;28;20111;-60
2022/10/27 11:38:07;;;;;;;;;;;;;;;;;;4998399;28;20376;-60
2022/10/27 11:40:57;;;;;;;28.52;27.02;;;;;;;;;;4995959;28;19909;-60
2022/10/27 11:43:41;;;;;;;27.55;25.83;;;;;;;;;;4996694;28;20224;-60
2022/10/27 11:46:09;;;;;;;24.40;23.08;;;;;;;;;;4997384;28;20030;-60
2022/10/27 11:48:55;;;;;;;26.80;25.30;;;;;;;;;;5006988;28;20057;-60
2022/10/27 11:52:01;;;;;;;32.53;30.77;;;;;;;;;;4996491;28;20460;-60
2022/10/27 11:54:27;;;;;;;30.75;29.15;;;;;;;;;;4996153;28;20031;-60
2022/10/27 11:57:37;;;;;;;28.65;27.15;;;;;;;;;;4998561;28;20037;-61
2022/10/27 12:00:10;;;;;;;23.52;22.23;;;;;;;;;;4968499;28;20081;-60
2022/10/27 12:02:54;;;;;;;24.52;23.13;;;;;;;;;;4996139;28;20038;-60
2022/10/27 12:06:10;;;;;;;34.35;32.42;;;;;;;;;;4998266;28;20069;-60
2022/10/27 12:08:35;;;;;;;23.73;22.42;;;;;;;;;;4928125;28;20031;-60
2022/10/27 12:11:25;;;;;;;25.42;24.02;;;;;;;;;;4946360;28;20043;-61
2022/10/27 12:14:21;;;;;;;27.17;25.67;;;;;;;;;;4978410;28;20042;-60
2022/10/27 12:16:50;;;;;;;30.02;28.42;;;;;;;;;;4995164;28;20116;-60
2022/10/27 12:19:27;;;;;;;24.37;23.03;;;;;;;;;;4996303;28;20100;-60
2022/10/27 12:22:31;;;;;;;25.58;23.98;;;;;;;;;;4998494;28;20033;-60
2022/10/27 12:25:28;;;;;;;24.83;23.33;;;;;;;;;;4995825;28;20570;-59
2022/10/27 12:27:57;;;;;;;28.35;26.45;;;;;;;;;;4998629;28;20479;-60
2022/10/27 12:30:24;;;;;;;28.33;26.85;;;;;;;;;;4998230;28;20038;-60
2022/10/27 12:33:08;;;;;;;21.52;20.38;;;;;;;;;;4996575;28;20116;-60
2022/10/27 12:35:46;;;;;;;23.75;22.45;;;;;;;;;;4995465;28;20713;-61
2022/10/27 12:38:26;;;;;;;22.33;21.02;;;;;;;;;;4996048;28;20073;-60
2022/10/27 12:40:57;;;;;;;23.45;22.17;;;;;;;;;;4997945;28;20026;-60
2022/10/27 12:43:59;;;;;;;24.30;22.83;;;;;;;;;;4998288;28;20061;-59
2022/10/27 12:46:46;;;;;;;23.13;21.80;;;;;;;;;;5000412;28;20125;-60
2022/10/27 12:49:26;;;;;;;22.10;20.90;;;;;;;;;;4998228;28;20049;-60
2022/10/27 12:52:18;;;;;;;22.88;21.58;;;;;;;;;;4994935;28;20121;-59
2022/10/27 12:54:52;;;;;;;22.70;21.30;;;;;;;;;;4997421;28;20036;-59
2022/10/27 12:57:32;;;;;;;24.58;23.17;;;;;;;;;;4999598;28;20029;-59
2022/10/27 13:00:13;;;;;;;23.13;21.88;;;;;;;;;;4996509;28;20549;-59
2022/10/27 13:03:02;;;;;;;23.15;21.85;;;;;;;;;;4996582;28;20033;-59
2022/10/27 13:05:36;;;;;;;23.33;22.05;;;;;;;;;;4997546;28;20113;-60
2022/10/27 13:08:41;;;;;;;23.88;22.60;;;;;;;;;;4991537;28;20371;-60
2022/10/27 13:11:21;;;;;;;21.77;20.60;;;;;;;;;;4996496;28;20124;-59
2022/10/27 13:14:08;;;;;;;22.10;20.80;;;;;;;;;;4997512;28;20176;-59
2022/10/27 13:16:53;;;;;;;21.55;20.10;;;;;;;;;;4996939;28;20272;-59
2022/10/27 13:19:32;;;;;;;25.70;24.30;;;;;;;;;;4997641;28;20054;-59
2022/10/27 13:22:13;;;;;;;23.65;22.35;;;;;;;;;;4996950;28;20530;-60
2022/10/27 13:25:01;;;;;;;23.25;21.95;;;;;;;;;;4998575;28;20053;-60
2022/10/27 13:27:43;;;;;;;22.83;21.58;;;;;;;;;;4998149;28;20034;-60
2022/10/27 13:30:31;;;;;;;24.15;22.75;;;;;;;;;;4992189;28;20038;-60
2022/10/27 13:32:56;;;;;;;23.15;21.85;;;;;;;;;;4998576;28;20455;-60
2022/10/27 13:35:29;;;;;;;27.83;26.23;;;;;;;;;;4995359;28;20045;-60
2022/10/27 13:37:54;;;;;;;27.00;25.20;;;;;;;;;;4997876;28;20084;-60
2022/10/27 13:40:19;;;;;;;27.48;25.95;;;;;;;;;;4996982;28;20026;-59
2022/10/27 13:42:50;;;;;;;25.67;24.10;;;;;;;;;;4997865;28;20726;-60
2022/10/27 13:45:34;;;;;;;;;;;;;;;;;;4997367;28;20266;-60
2022/10/27 13:48:05;;;;;;;23.08;21.60;;;;;;;;;;4997115;28;19924;-60
2022/10/27 13:50:38;;;;;;;24.35;23.00;;;;;;;;;;4998184;28;20416;-60
2022/10/27 13:53:16;;;;;;;25.17;23.77;;;;;;;;;;4995614;28;20046;-60
2022/10/27 13:55:56;;;;;;;23.17;21.90;;;;;;;;;;4997429;28;20345;-60
2022/10/27 13:58:31;;;;;;;23.63;21.25;;;;;;;;;;4994038;28;20538;-60
2022/10/27 14:01:03;;;;;;;23.52;22.02;;;;;;;;;;4999362;28;20038;-60
2022/10/27 14:03:29;;;;;;;22.85;21.52;;;;;;;;;;4996129;28;20104;-59
2022/10/27 14:05:54;;;;;;;23.05;21.80;;;;;;;;;;4993173;28;20030;-60
2022/10/27 14:08:26;;;;;;;24.10;22.75;;;;;;;;;;4996416;28;20040;-60
2022/10/27 14:10:53;;;;;;;25.15;23.70;;;;;;;;;;4993164;28;20407;-60
2022/10/27 14:13:29;;;;;;;29.38;26.88;;;;;;;;;;4994250;28;20283;-60
2022/10/27 14:15:59;;;;;;;25.08;23.67;;;;;;;;;;4996413;28;20038;-60
2022/10/27 14:18:28;;;;;;;;;;;;;;;;;;4992201;28;20089;-60
2022/10/27 14:20:55;;;;;;;23.88;22.00;;;;;;;;;;4996601;28;19980;-59
2022/10/27 14:23:21;;;;;;;24.25;22.65;;;;;;;;;;4996927;28;20344;-60
2022/10/27 14:25:46;;;;;;;24.25;22.83;;;;;;;;;;4998151;28;20034;-59
2022/10/27 14:28:20;;;;;;;26.08;24.48;;;;;;;;;;5000763;28;20041;-59
2022/10/27 14:31:07;;;;;;;28.38;26.83;;;;;;;;;;4997308;28;20030;-59
2022/10/27 14:33:33;;;;;;;22.80;21.48;;;;;;;;;;5000422;28;20830;-60
2022/10/27 14:36:06;;;;;;;25.75;24.30;;;;;;;;;;5000599;28;20117;-59
2022/10/27 14:38:31;;;;;;;25.70;24.27;;;;;;;;;;5000233;28;20057;-59
2022/10/27 14:40:56;;;;;;;26.67;25.25;;;;;;;;;;5000684;28;20432;-60
2022/10/27 14:43:24;;;;;;;25.27;23.92;;;;;;;;;;5001274;28;20103;-60
2022/10/27 14:45:59;;;;;;;29.92;28.30;;;;;;;;;;4996927;28;20030;-60